Terminal Aerodrome Forecast
Issued by NWS

Home | Current Version | Previous Version | Text Only | Print | Product List | Glossary On
Versions: 1 2 3 4 5 6 7 8 9 10 11 12 13 14 15 16 17 18 19
409
FTUS43 KIND 191725
TAFHUF
TAF
KHUF 191725Z 1918/2018 12007KT P6SM VCSH OVC080
     FM192000 11007KT 5SM BR VCSH OVC045
     FM192200 10007KT 3SM -SHRA BR OVC020
     FM200000 10008KT 3SM SHRA BR OVC010
     FM200300 11006KT 2SM SHRA BR OVC003
     FM200600 13004KT 2SM -SHRA BR OVC003
     FM200900 22006KT 1 1/2SM BR VCSH OVC003=

USA.gov is the U.S. government's official web portal to all federal, state and local government web resources and services.